Time;durP1;ratioP1;P1;durP2;ratioP2;P2;SDS_P1;SDS_P2;PMS_P1;PMS_P2;Temp;Humidity;BMP_temperature;BMP_pressure;BME280_temperature;BME280_humidity;BME280_pressure;Samples;Min_cycle;Max_cycle;Signal;HPM_P1;HPM_P2
2022/08/15 04:02:35;;;;;;;;;;;;;;;20.77;65.75;97892.22;2602732;46;20170;-66
2022/08/15 04:05:07;;;;;;;;;;;;;;;20.73;65.70;97901.13;2620664;54;19981;-66
2022/08/15 04:07:39;;;;;;;;;;;;;;;20.65;66.08;97896.34;2621316;54;19990;-67
2022/08/15 04:10:15;;;;;;;;;;;;;;;20.64;66.58;97895.53;2623360;54;19953;-66
2022/08/15 04:13:06;;;;;;;;;;;;;;;20.57;66.75;97895.03;2623546;51;19957;-66
2022/08/15 04:15:38;;;;;;;;;;;;;;;20.46;67.29;97893.50;2620263;54;19958;-67
2022/08/15 04:18:10;;;;;;;;;;;;;;;20.32;67.91;97900.56;2617350;47;20033;-68
2022/08/15 04:21:00;;;;;;;;;;;;;;;20.28;68.35;97894.94;2617546;54;19947;-67
2022/08/15 04:23:32;;;;;;;;;;;;;;;20.35;68.45;97891.97;2617581;54;19939;-66
2022/08/15 04:26:03;;;;;;;;;;;;;;;20.42;67.60;97890.56;2617478;54;19950;-67
2022/08/15 04:28:36;;;;;;;;;;;;;;;20.43;67.84;97888.69;2617668;47;19945;-66
2022/08/15 04:31:27;;;;;;;;;;;;;;;20.39;68.10;97890.31;2617608;47;19973;-66
2022/08/15 04:34:06;;;;;;;;;;;;;;;20.39;67.71;97890.31;2617428;47;19960;-66
2022/08/15 04:36:55;;;;;;;;;;;;;;;20.37;68.25;97887.09;2617413;46;19946;-66
2022/08/15 04:39:26;;;;;;;;;;;;;;;20.38;68.12;97889.53;2617603;54;19954;-66
2022/08/15 04:42:06;;;;;;;;;;;;;;;20.39;68.10;97888.44;2617557;54;19946;-66
2022/08/15 04:44:39;;;;;;;;;;;;;;;20.46;68.14;97896.19;2617446;54;19953;-67
2022/08/15 04:47:14;;;;;;;;;;;;;;;20.41;67.99;97893.50;2617548;54;19953;-66
2022/08/15 04:49:48;;;;;;;;;;;;;;;20.34;68.17;97890.38;2618849;54;19966;-67
2022/08/15 04:52:20;;;;;;;;;;;;;;;20.31;68.15;97897.06;2618502;54;19950;-67
2022/08/15 04:54:54;;;;;;;;;;;;;;;20.28;67.99;97887.69;2618303;54;19969;-66
2022/08/15 04:57:29;;;;;;;;;;;;;;;20.25;68.44;97893.63;2618169;54;20435;-67
2022/08/15 04:59:59;;;;;;;;;;;;;;;20.31;68.05;97888.22;2618511;47;20011;-67
2022/08/15 05:02:59;;;;;;;;;;;;;;;20.28;68.08;97894.94;2617916;47;19946;-67
2022/08/15 05:05:34;;;;;;;;;;;;;;;20.30;68.40;97895.47;2617944;54;19956;-68
2022/08/15 05:08:07;;;;;;;;;;;;;;;20.28;68.57;97893.06;2618405;39;20353;-68
2022/08/15 05:10:45;;;;;;;;;;;;;;;20.27;68.44;97896.03;2617463;54;20437;-68
2022/08/15 05:13:16;;;;;;;;;;;;;;;20.28;68.45;97903.00;2617767;47;19977;-67
2022/08/15 05:15:47;;;;;;;;;;;;;;;20.39;68.62;97914.47;2617461;54;19938;-66
2022/08/15 05:18:37;;;;;;;;;;;;;;;20.41;68.19;97905.09;2617467;47;19938;-67
2022/08/15 05:21:17;;;;;;;;;;;;;;;20.42;67.88;97897.81;2617872;39;20342;-67
2022/08/15 05:24:06;;;;;;;;;;;;;;;20.46;67.67;97897.00;2618247;31;20362;-67
2022/08/15 05:26:38;;;;;;;;;;;;;;;20.46;68.33;97898.88;2617112;47;19953;-67
2022/08/15 05:29:27;;;;;;;;;;;;;;;20.46;68.10;97906.94;2617456;47;19947;-67
2022/08/15 05:31:58;;;;;;;;;;;;;;;20.49;67.70;97909.88;2617120;47;19938;-67
2022/08/15 05:34:28;;;;;;;;;;;;;;;20.47;67.66;97909.31;2617373;47;20674;-67
2022/08/15 05:37:11;;;;;;;;;;;;;;;20.45;67.57;97907.97;2617696;39;20322;-67
2022/08/15 05:39:45;;;;;;;;;;;;;;;20.56;67.60;97901.50;2617318;54;19962;-67
2022/08/15 05:42:20;;;;;;;;;;;;;;;20.62;67.77;97897.72;2617805;39;20357;-66
2022/08/15 05:45:08;;;;;;;;;;;;;;;20.65;67.88;97899.81;2617446;54;19947;-67
2022/08/15 05:47:45;;;;;;;;;;;;;;;20.66;67.37;97897.97;2617043;54;19954;-67
2022/08/15 05:50:26;;;;;;;;;;;;;;;20.63;67.14;97910.06;2617737;39;20358;-66
2022/08/15 05:53:02;;;;;;;;;;;;;;;20.53;67.78;97912.78;2617448;54;19947;-67
2022/08/15 05:55:40;;;;;;;;;;;;;;;20.50;67.41;97916.06;2617350;54;20446;-66
2022/08/15 05:58:20;;;;;;;;;;;;;;;20.45;68.04;97910.66;2617197;46;20438;-66
2022/08/15 06:01:14;;;;;;;;;;;;;;;20.50;67.79;97911.50;2617261;47;19943;-66
2022/08/15 06:03:49;;;;;;;;;;;;;;;20.43;68.30;97920.91;2617123;54;19946;-67
2022/08/15 06:06:22;;;;;;;;;;;;;;;20.40;68.14;97916.06;2617595;39;20362;-67
2022/08/15 06:09:04;;;;;;;;;;;;;;;20.38;67.71;97918.25;2617384;54;19946;-67
2022/08/15 06:11:37;;;;;;;;;;;;;;;20.35;67.90;97929.53;2617796;54;19973;-66
2022/08/15 06:14:14;;;;;;;;;;;;;;;20.32;67.88;97927.41;2617396;31;20443;-67
2022/08/15 06:16:50;;;;;;;;;;;;;;;20.38;68.06;97929.00;2617167;54;19946;-66
2022/08/15 06:19:25;;;;;;;;;;;;;;;20.33;67.90;97923.63;2617139;54;20066;-67
2022/08/15 06:22:10;;;;;;;;;;;;;;;20.33;68.15;97926.31;2617174;47;19946;-67
2022/08/15 06:24:48;;;;;;;;;;;;;;;20.37;68.03;97930.03;2617162;47;19994;-67
2022/08/15 06:27:25;;;;;;;;;;;;;;;20.50;67.82;97932.16;2616946;54;19946;-67
2022/08/15 06:30:12;;;;;;;;;;;;;;;20.76;67.46;97930.09;2617351;54;19954;-67
2022/08/15 06:32:57;;;;;;;;;;;;;;;20.99;66.62;97925.91;2617573;54;19939;-70
2022/08/15 06:35:32;;;;;;;;;;;;;;;21.11;66.32;97925.53;2617576;39;20454;-67
2022/08/15 06:38:11;;;;;;;;;;;;;;;21.21;65.79;97918.16;2617322;54;19947;-67
2022/08/15 06:41:06;;;;;;;;;;;;;;;21.45;65.60;97917.44;2617287;54;19953;-67
2022/08/15 06:43:36;;;;;;;;;;;;;;;21.48;65.06;97923.06;2617647;54;19947;-67
2022/08/15 06:46:17;;;;;;;;;;;;;;;21.59;65.00;97915.66;2617329;39;20334;-67
2022/08/15 06:49:10;;;;;;;;;;;;;;;21.58;64.59;97921.34;2617117;47;19947;-67
2022/08/15 06:51:47;;;;;;;;;;;;;;;21.44;64.90;97918.53;2617007;50;20453;-67
2022/08/15 06:54:22;;;;;;;;;;;;;;;21.38;64.70;97909.72;2617222;54;19969;-67
2022/08/15 06:57:15;;;;;;;;;;;;;;;21.22;64.96;97919.78;2616825;54;19950;-67
2022/08/15 06:59:56;;;;;;;;;;;;;;;21.23;65.02;97921.41;2616964;54;19958;-67
2022/08/15 07:02:37;;;;;;;;;;;;;;;21.13;65.64;97920.69;2617065;54;19946;-66
2022/08/15 07:05:22;;;;;;;;;;;;;;;21.06;65.99;97928.25;2618579;54;19955;-67
2022/08/15 07:08:05;;;;;;;;;;;;;;;21.04;66.14;97928.53;2618741;54;20485;-66
2022/08/15 07:10:43;;;;;;;;;;;;;;;21.00;65.91;97931.00;2618291;54;20469;-67
2022/08/15 07:13:25;;;;;;;;;;;;;;;20.91;66.04;97937.25;2618028;54;19975;-67
2022/08/15 07:15:58;;;;;;;;;;;;;;;20.84;66.02;97937.56;2617851;54;19946;-67
2022/08/15 07:18:34;;;;;;;;;;;;;;;20.88;65.92;97945.88;2617673;47;19938;-67
2022/08/15 07:21:08;;;;;;;;;;;;;;;20.88;65.97;97938.59;2617930;54;19939;-67
2022/08/15 07:24:01;;;;;;;;;;;;;;;20.92;65.61;97936.97;2617907;47;19938;-66
2022/08/15 07:26:54;;;;;;;;;;;;;;;20.99;65.84;97947.41;2617692;51;19981;-67
2022/08/15 07:29:40;;;;;;;;;;;;;;;20.85;65.83;97947.22;2617901;54;19975;-67
2022/08/15 07:32:14;;;;;;;;;;;;;;;21.06;65.42;97945.16;2617802;54;20426;-67
2022/08/15 07:35:08;;;;;;;;;;;;;;;21.26;65.56;97941.50;2618267;39;20096;-66
2022/08/15 07:37:41;;;;;;;;;;;;;;;21.49;64.77;97946.16;2617859;47;19947;-66
2022/08/15 07:40:20;;;;;;;;;;;;;;;21.78;64.30;97948.03;2618576;54;19954;-67
2022/08/15 07:43:00;;;;;;;;;;;;;;;21.94;63.60;97943.25;2618414;47;19943;-67
2022/08/15 07:45:36;;;;;;;;;;;;;;;21.94;63.14;97952.13;2618196;47;19946;-66
2022/08/15 07:48:32;;;;;;;;;;;;;;;22.04;63.63;97936.94;2618157;54;20026;-67
2022/08/15 07:51:18;;;;;;;;;;;;;;;22.20;63.11;97944.56;2618135;47;19950;-65
2022/08/15 07:53:58;;;;;;;;;;;;;;;22.34;62.06;97946.56;2618154;47;19981;-66
2022/08/15 07:56:36;;;;;;;;;;;;;;;22.40;62.45;97940.00;2617884;47;19946;-65
2022/08/15 07:59:20;;;;;;;;;;;;;;;22.45;62.23;97939.94;2618162;47;20442;-66
2022/08/15 08:02:26;;;;;;;;;;;;;;;22.42;62.12;97935.16;2618290;54;19958;-67
2022/08/15 08:05:07;;;;;;;;;;;;;;;22.34;62.06;97941.19;2618048;54;19954;-67
2022/08/15 08:07:39;;;;;;;;;;;;;;;22.40;61.93;97948.09;2617885;54;19952;-67
2022/08/15 08:10:27;;;;;;;;;;;;;;;22.44;61.51;97941.84;2618023;54;19981;-65
2022/08/15 08:13:18;;;;;;;;;;;;;;;22.71;61.75;97948.47;2617881;54;19958;-67
2022/08/15 08:16:00;;;;;;;;;;;;;;;22.75;60.57;97952.19;2617726;54;19970;-67
2022/08/15 08:18:45;;;;;;;;;;;;;;;22.75;60.56;97947.59;2617538;54;20461;-68
2022/08/15 08:21:18;;;;;;;;;;;;;;;22.79;59.85;97942.41;2617944;47;19942;-67
2022/08/15 08:24:04;;;;;;;;;;;;;;;22.87;59.95;97952.53;2618170;54;19966;-70
2022/08/15 08:26:42;;;;;;;;;;;;;;;23.15;60.11;97953.47;2617861;54;20039;-69
2022/08/15 08:29:19;;;;;;;;;;;;;;;23.12;59.47;97955.94;2618087;54;20037;-68
2022/08/15 08:31:52;;;;;;;;;;;;;;;22.98;59.40;97947.78;2617901;54;19990;-68
2022/08/15 08:34:35;;;;;;;;;;;;;;;22.90;59.17;97951.13;2618561;54;19943;-67
2022/08/15 08:37:23;;;;;;;;;;;;;;;22.95;59.37;97965.38;2618942;54;19966;-67
2022/08/15 08:41:24;;;;;;;;;;;;;;;22.93;58.96;97955.97;2619488;54;19942;-67
2022/08/15 08:42:50;;;;;;;;;;;;;;;23.08;59.13;97953.03;2618546;54;19947;-67
2022/08/15 08:45:25;;;;;;;;;;;;;;;23.12;58.50;97947.88;2619022;54;20018;-67
2022/08/15 08:48:06;;;;;;;;;;;;;;;23.12;58.64;97956.75;2619623;47;20002;-67
2022/08/15 08:50:43;;;;;;;;;;;;;;;23.19;58.44;97957.19;2620010;54;19947;-67
2022/08/15 08:53:28;;;;;;;;;;;;;;;23.20;57.92;97950.69;2620034;54;19938;-67
2022/08/15 08:56:01;;;;;;;;;;;;;;;23.07;57.46;97950.66;2618715;54;19985;-67
2022/08/15 08:58:36;;;;;;;;;;;;;;;22.90;57.65;97962.75;2618983;54;19946;-66
2022/08/15 09:01:15;;;;;;;;;;;;;;;22.83;58.16;97962.28;2619255;54;19969;-67
2022/08/15 09:03:47;;;;;;;;;;;;;;;22.75;57.96;97965.66;2619409;46;20515;-68
2022/08/15 09:06:26;;;;;;;;;;;;;;;22.65;58.23;97969.28;2619273;54;19945;-67
2022/08/15 09:09:00;;;;;;;;;;;;;;;22.52;58.24;97970.00;2622159;54;19975;-67
2022/08/15 09:11:31;;;;;;;;;;;;;;;22.60;58.59;97971.25;2622801;54;19938;-69
2022/08/15 09:14:03;;;;;;;;;;;;;;;22.68;59.04;97978.69;2622634;54;19957;-66
2022/08/15 09:16:35;;;;;;;;;;;;;;;22.77;58.89;97985.00;2620390;54;19954;-67
2022/08/15 09:19:09;;;;;;;;;;;;;;;22.68;59.14;97982.16;2619671;54;19947;-67
2022/08/15 09:21:43;;;;;;;;;;;;;;;22.76;58.82;97978.03;2619364;54;20635;-66
2022/08/15 09:24:15;;;;;;;;;;;;;;;22.80;58.70;97995.22;2622031;54;19953;-67
2022/08/15 09:27:07;;;;;;;;;;;;;;;22.74;58.65;97989.09;2623580;51;19945;-68
2022/08/15 09:29:42;;;;;;;;;;;;;;;22.73;58.70;97994.75;2624043;46;20430;-66
2022/08/15 09:32:32;;;;;;;;;;;;;;;22.75;58.28;97993.38;2624495;54;19946;-68
2022/08/15 09:35:13;;;;;;;;;;;;;;;22.81;58.39;97991.41;2623935;54;19947;-67
2022/08/15 09:37:57;;;;;;;;;;;;;;;22.82;58.43;97994.91;2624121;54;19951;-67
2022/08/15 09:40:33;;;;;;;;;;;;;;;22.80;57.87;97997.09;2624715;54;19951;-66
2022/08/15 09:43:31;;;;;;;;;;;;;;;22.75;58.34;97996.09;2623516;54;19974;-66
2022/08/15 09:46:12;;;;;;;;;;;;;;;22.69;58.13;97999.13;2623171;54;19939;-66
2022/08/15 09:49:10;;;;;;;;;;;;;;;22.63;57.88;97995.72;2627738;39;20358;-66
2022/08/15 09:51:48;;;;;;;;;;;;;;;22.62;58.05;97994.13;2623148;47;19953;-67
2022/08/15 09:54:24;;;;;;;;;;;;;;;22.68;58.13;97986.75;2623415;54;19965;-66
2022/08/15 09:57:16;;;;;;;;;;;;;;;22.70;58.08;97977.31;2619831;47;19942;-67
2022/08/15 09:59:45;;;;;;;;;;;;;;;22.82;57.98;97976.88;2618217;54;19946;-68
2022/08/15 10:02:22;;;;;;;;;;;;;;;22.88;57.76;97974.88;2618138;54;19947;-67
2022/08/15 10:05:14;;;;;;;;;;;;;;;23.05;57.34;97977.88;2618898;39;20331;-66
2022/08/15 10:07:46;;;;;;;;;;;;;;;23.21;56.88;97973.84;2618163;54;19947;-66
2022/08/15 10:10:22;;;;;;;;;;;;;;;23.34;56.29;97976.88;2618469;54;19946;-66
2022/08/15 10:13:13;;;;;;;;;;;;;;;23.45;55.95;97972.91;2618176;54;19947;-66
2022/08/15 10:15:44;;;;;;;;;;;;;;;23.75;55.94;97973.47;2618701;54;20433;-67
2022/08/15 10:18:37;;;;;;;;;;;;;;;24.25;55.50;97960.06;2618307;54;19945;-66
2022/08/15 10:21:19;;;;;;;;;;;;;;;24.55;54.02;97962.16;2618505;54;19946;-66
2022/08/15 10:23:52;;;;;;;;;;;;;;;24.82;53.67;97969.41;2617890;54;19938;-66
2022/08/15 10:26:31;;;;;;;;;;;;;;;24.99;53.09;97965.22;2617590;47;20034;-67
2022/08/15 10:29:06;;;;;;;;;;;;;;;25.21;51.88;97965.25;2618702;54;19957;-67
2022/08/15 10:31:44;;;;;;;;;;;;;;;25.19;51.22;97960.16;2618484;54;19947;-67
2022/08/15 10:34:37;;;;;;;;;;;;;;;24.83;51.56;97959.38;2618137;39;20406;-67
2022/08/15 10:37:10;;;;;;;;;;;;;;;24.85;51.30;97954.44;2619515;54;19993;-67
2022/08/15 10:39:49;;;;;;;;;;;;;;;24.79;51.83;97955.69;2618516;54;19939;-67
2022/08/15 10:42:28;;;;;;;;;;;;;;;24.65;51.69;97953.00;2618060;47;20482;-66
2022/08/15 10:45:06;;;;;;;;;;;;;;;24.73;51.87;97956.91;2618627;54;19953;-66
2022/08/15 10:47:47;;;;;;;;;;;;;;;24.62;51.30;97959.84;2619698;54;19939;-67
2022/08/15 10:50:36;;;;;;;;;;;;;;;24.52;51.64;97962.75;2618161;39;20375;-69
2022/08/15 10:53:16;;;;;;;;;;;;;;;24.50;52.11;97954.16;2618008;54;19951;-69
2022/08/15 10:55:45;;;;;;;;;;;;;;;24.38;51.59;97954.69;2618640;54;20041;-67
2022/08/15 10:58:32;;;;;;;;;;;;;;;24.46;51.92;97955.88;2618828;54;20561;-67
2022/08/15 11:01:06;;;;;;;;;;;;;;;24.83;51.04;97952.06;2618951;54;20430;-67
2022/08/15 11:03:43;;;;;;;;;;;;;;;25.33;50.42;97943.03;2618505;54;19961;-68
2022/08/15 11:06:34;;;;;;;;;;;;;;;25.86;49.99;97939.50;2618179;54;19954;-69
2022/08/15 11:09:07;;;;;;;;;;;;;;;25.82;47.98;97935.81;2618635;54;19953;-67
2022/08/15 11:11:39;;;;;;;;;;;;;;;25.65;48.68;97933.81;2618843;39;20330;-67
2022/08/15 11:14:19;;;;;;;;;;;;;;;25.53;48.46;97939.81;2617640;39;20342;-67
2022/08/15 11:16:59;;;;;;;;;;;;;;;25.54;48.18;97932.47;2617634;54;19947;-67
2022/08/15 11:19:32;;;;;;;;;;;;;;;25.70;48.38;97930.97;2617722;54;20386;-67
2022/08/15 11:22:35;;;;;;;;;;;;;;;25.92;47.58;97925.50;2617864;54;20030;-66
2022/08/15 11:25:08;;;;;;;;;;;;;;;26.16;47.39;97927.78;2617935;54;19951;-66
2022/08/15 11:27:38;;;;;;;;;;;;;;;26.44;47.12;97924.78;2617596;54;19974;-66
2022/08/15 11:30:21;;;;;;;;;;;;;;;26.49;46.08;97926.56;2617638;54;19946;-66
2022/08/15 11:32:52;;;;;;;;;;;;;;;26.73;46.98;97917.97;2618004;54;19958;-66
2022/08/15 11:35:25;;;;;;;;;;;;;;;26.96;45.73;97916.69;2617461;54;19950;-66
2022/08/15 11:37:57;;;;;;;;;;;;;;;26.99;45.05;97913.34;2618109;54;19939;-67
2022/08/15 11:40:28;;;;;;;;;;;;;;;26.75;45.15;97905.69;2618000;39;20324;-67
2022/08/15 11:42:59;;;;;;;;;;;;;;;26.86;45.33;97912.41;2618533;54;19962;-67
2022/08/15 11:45:48;;;;;;;;;;;;;;;27.00;45.23;97914.91;2618904;54;19942;-67
2022/08/15 11:48:24;;;;;;;;;;;;;;;26.92;44.83;97907.59;2617976;54;19946;-67
2022/08/15 11:51:06;;;;;;;;;;;;;;;26.70;44.52;97911.28;2617638;39;20433;-67
2022/08/15 11:53:41;;;;;;;;;;;;;;;26.54;45.33;97915.59;2617956;47;19939;-67
2022/08/15 11:56:11;;;;;;;;;;;;;;;26.42;45.60;97908.84;2618582;54;19946;-67
2022/08/15 11:58:54;;;;;;;;;;;;;;;26.29;45.17;97907.09;2618791;54;20446;-67
2022/08/15 12:01:35;;;;;;;;;;;;;;;26.16;46.20;97908.00;2618881;54;20007;-67
2022/08/15 12:04:12;;;;;;;;;;;;;;;26.05;46.22;97902.13;2617990;52;20022;-67
2022/08/15 12:07:06;;;;;;;;;;;;;;;25.90;46.35;97902.56;2618462;54;19955;-67
2022/08/15 12:09:37;;;;;;;;;;;;;;;25.87;46.40;97906.69;2618899;39;20037;-67
2022/08/15 12:12:28;;;;;;;;;;;;;;;25.82;46.33;97908.75;2618781;54;19947;-67
2022/08/15 12:15:04;;;;;;;;;;;;;;;25.73;47.82;97913.31;2618612;54;19946;-67
2022/08/15 12:17:41;;;;;;;;;;;;;;;25.68;47.34;97906.91;2618809;54;19946;-66
2022/08/15 12:20:39;;;;;;;;;;;;;;;25.50;48.59;97907.16;2618658;54;20058;-67
2022/08/15 12:23:24;;;;;;;;;;;;;;;25.86;48.63;97910.50;2618092;47;20063;-66
2022/08/15 12:25:54;;;;;;;;;;;;;;;26.34;48.89;97912.34;2618874;54;19950;-67
2022/08/15 12:28:25;;;;;;;;;;;;;;;26.67;46.97;97909.22;2618407;54;19951;-66
2022/08/15 12:31:22;;;;;;;;;;;;;;;26.48;46.91;97904.09;2617689;47;19954;-67
2022/08/15 12:34:02;;;;;;;;;;;;;;;26.33;47.56;97912.66;2618231;54;19938;-67
2022/08/15 12:36:52;;;;;;;;;;;;;;;26.25;47.16;97908.84;2618303;54;19939;-66
2022/08/15 12:39:35;;;;;;;;;;;;;;;26.22;47.05;97911.38;2618442;54;19977;-67
2022/08/15 12:42:09;;;;;;;;;;;;;;;26.26;47.09;97904.22;2618251;54;20554;-67
2022/08/15 12:45:00;;;;;;;;;;;;;;;26.38;46.73;97909.81;2618443;54;20041;-67
2022/08/15 12:47:32;;;;;;;;;;;;;;;26.40;46.58;97910.28;2617366;51;20509;-67
2022/08/15 12:50:06;;;;;;;;;;;;;;;26.43;46.41;97915.06;2618138;54;19943;-68
2022/08/15 12:52:36;;;;;;;;;;;;;;;26.58;46.17;97908.44;2618303;54;19946;-67
2022/08/15 12:55:05;;;;;;;;;;;;;;;26.74;45.78;97900.56;2618412;54;19997;-67
2022/08/15 12:57:38;;;;;;;;;;;;;;;26.99;45.23;97897.06;2617997;54;19961;-66
2022/08/15 13:00:22;;;;;;;;;;;;;;;27.42;45.07;97898.88;2618221;54;19946;-66
2022/08/15 13:03:09;;;;;;;;;;;;;;;27.59;43.45;97895.28;2617939;54;19946;-67
2022/08/15 13:05:58;;;;;;;;;;;;;;;27.40;44.09;97901.94;2617867;54;19946;-67
2022/08/15 13:08:47;;;;;;;;;;;;;;;27.23;43.85;97912.00;2618187;54;19946;-67
2022/08/15 13:11:22;;;;;;;;;;;;;;;27.06;43.81;97910.09;2618053;54;20046;-67
2022/08/15 13:13:54;;;;;;;;;;;;;;;27.10;44.16;97901.03;2617849;39;20351;-67
2022/08/15 13:16:24;;;;;;;;;;;;;;;27.04;43.50;97905.03;2617802;54;19958;-66
2022/08/15 13:19:17;;;;;;;;;;;;;;;27.09;43.33;97896.69;2617560;51;19946;-66
2022/08/15 13:24:57;;;;;;;;;;;;;;;27.57;42.18;97902.97;2617668;47;19977;-67
2022/08/15 13:27:30;;;;;;;;;;;;;;;27.77;41.66;97893.34;2617780;54;19947;-67
2022/08/15 13:30:02;;;;;;;;;;;;;;;27.99;42.15;97893.03;2617979;54;19969;-67
2022/08/15 13:32:36;;;;;;;;;;;;;;;28.28;41.50;97889.50;2617800;54;19953;-67
2022/08/15 13:35:08;;;;;;;;;;;;;;;28.48;40.91;97884.44;2617871;54;19946;-69
2022/08/15 13:37:43;;;;;;;;;;;;;;;28.62;40.27;97883.03;2617730;54;19954;-67
2022/08/15 13:40:32;;;;;;;;;;;;;;;28.64;39.14;97883.47;2617943;54;19942;-68
2022/08/15 13:43:02;;;;;;;;;;;;;;;28.74;38.66;97865.97;2617746;54;19963;-68
2022/08/15 13:45:40;;;;;;;;;;;;;;;28.78;38.15;97868.78;2617747;54;19946;-67
2022/08/15 13:48:32;;;;;;;;;;;;;;;28.95;38.14;97849.59;2617813;54;20407;-69
2022/08/15 13:51:10;;;;;;;;;;;;;;;29.09;37.55;97857.47;2617519;54;19951;-68
2022/08/15 13:53:44;;;;;;;;;;;;;;;28.81;37.48;97860.75;2617944;54;19954;-67
2022/08/15 13:56:34;;;;;;;;;;;;;;;28.45;37.51;97850.53;2617728;54;20046;-67
2022/08/15 13:59:06;;;;;;;;;;;;;;;28.82;37.38;97847.97;2618528;39;20548;-68
2022/08/15 14:01:42;;;;;;;;;;;;;;;28.98;37.49;97840.00;2617859;54;19942;-66
2022/08/15 14:04:13;;;;;;;;;;;;;;;28.69;36.95;97844.41;2617760;54;19969;-67
2022/08/15 14:06:43;;;;;;;;;;;;;;;28.45;36.92;97836.94;2617539;54;19954;-67
2022/08/15 14:09:27;;;;;;;;;;;;;;;28.31;37.65;97836.41;2617755;54;19939;-67
2022/08/15 14:12:17;;;;;;;;;;;;;;;28.20;37.54;97832.50;2617936;54;20078;-66
2022/08/15 14:14:46;;;;;;;;;;;;;;;28.17;37.67;97831.25;2617668;54;19970;-67
2022/08/15 14:17:34;;;;;;;;;;;;;;;28.26;37.55;97826.53;2616949;47;19939;-67
2022/08/15 14:20:09;;;;;;;;;;;;;;;28.67;36.96;97826.84;2617629;54;19946;-67
2022/08/15 14:22:56;;;;;;;;;;;;;;;28.61;37.00;97832.47;2617678;54;20029;-67
2022/08/15 14:25:30;;;;;;;;;;;;;;;28.53;36.32;97824.41;2617663;54;19947;-67
2022/08/15 14:28:20;;;;;;;;;;;;;;;28.64;36.43;97812.78;2617641;54;19980;-67
2022/08/15 14:30:49;;;;;;;;;;;;;;;28.83;36.28;97819.66;2617770;54;19946;-66
2022/08/15 14:33:27;;;;;;;;;;;;;;;28.83;35.85;97820.44;2617621;54;19953;-67
2022/08/15 14:36:17;;;;;;;;;;;;;;;28.47;35.93;97821.13;2617593;54;19946;-67
2022/08/15 14:38:59;;;;;;;;;;;;;;;28.01;36.43;97835.69;2617330;47;19950;-67
2022/08/15 14:41:33;;;;;;;;;;;;;;;27.77;37.19;97830.88;2618464;39;20028;-66
2022/08/15 14:44:05;;;;;;;;;;;;;;;27.64;37.49;97844.34;2617589;54;19939;-66
2022/08/15 14:46:35;;;;;;;;;;;;;;;27.28;37.22;97847.53;2617443;54;19946;-66
2022/08/15 14:49:06;;;;;;;;;;;;;;;27.14;37.83;97849.66;2617941;39;20346;-66
2022/08/15 14:51:37;;;;;;;;;;;;;;;26.93;38.38;97863.88;2617657;54;19954;-66
2022/08/15 14:54:27;;;;;;;;;;;;;;;26.69;38.93;97869.00;2617739;54;20020;-66
2022/08/15 14:57:19;;;;;;;;;;;;;;;26.40;40.32;97866.94;2616880;54;20466;-66
2022/08/15 14:59:54;;;;;;;;;;;;;;;26.02;40.95;97869.44;2617671;54;19939;-67
2022/08/15 15:02:35;;;;;;;;;;;;;;;25.69;39.25;97880.66;2617620;54;19947;-66
2022/08/15 15:05:07;;;;;;;;;;;;;;;25.27;38.80;97876.66;2618457;39;20339;-66
2022/08/15 15:07:37;;;;;;;;;;;;;;;24.90;39.13;97876.75;2617324;54;19953;-66
2022/08/15 15:10:28;;;;;;;;;;;;;;;24.80;39.20;97871.59;2617720;54;20050;-66
2022/08/15 15:13:01;;;;;;;;;;;;;;;24.91;39.15;97874.84;2617616;54;19946;-66
2022/08/15 15:15:35;;;;;;;;;;;;;;;24.98;39.68;97875.19;2617986;54;19951;-66
2022/08/15 15:18:11;;;;;;;;;;;;;;;24.95;40.11;97882.03;2617582;47;19939;-67
2022/08/15 15:21:01;;;;;;;;;;;;;;;24.96;40.57;97872.81;2617720;54;20526;-67
2022/08/15 15:23:31;;;;;;;;;;;;;;;25.16;40.02;97868.81;2617509;54;19950;-67
2022/08/15 15:26:01;;;;;;;;;;;;;;;25.63;39.55;97854.81;2617833;39;20354;-67
2022/08/15 15:28:35;;;;;;;;;;;;;;;26.02;39.52;97855.91;2618108;54;19958;-67
2022/08/15 15:31:16;;;;;;;;;;;;;;;26.23;38.79;97851.47;2617823;54;19943;-67
2022/08/15 15:33:46;;;;;;;;;;;;;;;26.65;38.08;97849.09;2618243;54;20442;-67
2022/08/15 15:36:25;;;;;;;;;;;;;;;26.87;37.83;97840.78;2617984;54;19954;-67
2022/08/15 15:39:00;;;;;;;;;;;;;;;27.00;37.49;97841.69;2618240;54;19969;-67
2022/08/15 15:41:31;;;;;;;;;;;;;;;27.27;37.27;97840.53;2618404;54;19945;-68
2022/08/15 15:44:19;;;;;;;;;;;;;;;27.38;36.87;97841.75;2624493;54;20418;-67
2022/08/15 15:46:50;;;;;;;;;;;;;;;27.65;36.64;97837.00;2618583;54;20034;-68
2022/08/15 15:49:22;;;;;;;;;;;;;;;27.93;36.50;97831.13;2618717;54;20059;-67
2022/08/15 15:51:57;;;;;;;;;;;;;;;28.24;35.53;97831.50;2618527;54;19939;-68
2022/08/15 15:54:27;;;;;;;;;;;;;;;28.39;35.72;97835.56;2618660;54;19938;-68
2022/08/15 15:57:16;;;;;;;;;;;;;;;28.20;35.73;97836.00;2618383;54;19953;-67
2022/08/15 15:59:51;;;;;;;;;;;;;;;28.28;35.26;97840.56;2618269;54;19953;-67
2022/08/15 16:02:43;;;;;;;;;;;;;;;27.93;35.55;97861.78;2618573;39;20418;-67
2022/08/15 16:05:19;;;;;;;;;;;;;;;27.71;35.98;97868.25;2618074;54;19939;-68
2022/08/15 16:07:49;;;;;;;;;;;;;;;27.29;37.57;97864.63;2618111;54;19978;-68
2022/08/15 16:10:27;;;;;;;;;;;;;;;27.07;38.45;97866.41;2619286;54;20503;-66
2022/08/15 16:12:58;;;;;;;;;;;;;;;27.11;38.49;97861.16;2619514;54;19947;-68
2022/08/15 16:15:40;;;;;;;;;;;;;;;27.03;39.29;97870.88;2617906;39;20307;-67
2022/08/15 16:18:16;;;;;;;;;;;;;;;26.69;40.29;97869.00;2619941;54;19946;-66
2022/08/15 16:20:56;;;;;;;;;;;;;;;26.50;40.91;97865.84;2619356;47;20051;-67
2022/08/15 16:23:29;;;;;;;;;;;;;;;26.18;42.68;97863.25;2619722;46;19946;-66
2022/08/15 16:26:25;;;;;;;;;;;;;;;25.91;44.23;97858.91;2619826;54;19977;-67
2022/08/15 16:28:59;;;;;;;;;;;;;;;26.14;44.81;97861.50;2619452;51;19953;-67
2022/08/15 16:31:37;;;;;;;;;;;;;;;26.09;45.54;97850.84;2620363;54;20456;-66
2022/08/15 16:34:15;;;;;;;;;;;;;;;25.65;45.57;97848.00;2620275;54;19953;-66
2022/08/15 16:36:47;;;;;;;;;;;;;;;25.59;46.01;97845.75;2622063;54;19977;-67
2022/08/15 16:39:18;;;;;;;;;;;;;;;25.60;45.40;97842.75;2621988;54;19945;-66
2022/08/15 16:41:58;;;;;;;;;;;;;;;25.53;45.76;97847.81;2622860;54;19991;-66
2022/08/15 16:44:32;;;;;;;;;;;;;;;25.47;45.70;97838.22;2623733;54;19947;-67
2022/08/15 16:47:11;;;;;;;;;;;;;;;25.45;45.45;97840.47;2624151;54;19939;-67
2022/08/15 16:50:05;;;;;;;;;;;;;;;26.04;44.21;97834.72;2620674;54;20436;-66
2022/08/15 16:52:39;;;;;;;;;;;;;;;26.41;43.99;97830.59;2620430;54;19953;-66
2022/08/15 16:55:18;;;;;;;;;;;;;;;26.84;43.20;97840.63;2620416;54;19938;-67
2022/08/15 16:57:59;;;;;;;;;;;;;;;27.28;41.64;97835.91;2623364;54;19938;-67
2022/08/15 17:00:32;;;;;;;;;;;;;;;27.56;41.04;97838.97;2620835;39;20350;-68
2022/08/15 17:03:30;;;;;;;;;;;;;;;27.20;41.00;97837.50;2620170;54;19954;-66
2022/08/15 17:06:09;;;;;;;;;;;;;;;26.63;41.67;97845.91;2619911;54;20450;-66
2022/08/15 17:08:47;;;;;;;;;;;;;;;26.34;42.29;97846.53;2620159;54;19947;-66
2022/08/15 17:11:23;;;;;;;;;;;;;;;26.05;43.31;97855.28;2620087;54;19951;-66
2022/08/15 17:14:00;;;;;;;;;;;;;;;25.85;43.93;97848.56;2620231;54;19953;-68
2022/08/15 17:16:59;;;;;;;;;;;;;;;25.68;44.13;97852.78;2622115;54;19965;-66
2022/08/15 17:19:38;;;;;;;;;;;;;;;25.50;44.79;97859.25;2623345;54;19953;-66
2022/08/15 17:22:12;;;;;;;;;;;;;;;25.25;45.32;97852.63;2622826;47;19949;-67
2022/08/15 17:24:52;;;;;;;;;;;;;;;25.04;45.80;97854.25;2621398;54;19954;-66
2022/08/15 17:27:32;;;;;;;;;;;;;;;24.91;46.14;97866.75;2620293;39;20401;-66
2022/08/15 17:30:23;;;;;;;;;;;;;;;24.73;46.97;97863.09;2621507;54;19947;-66
2022/08/15 17:33:16;;;;;;;;;;;;;;;24.76;47.06;97861.69;2622326;54;19951;-66
2022/08/15 17:36:09;;;;;;;;;;;;;;;24.66;47.26;97868.97;2622790;39;20369;-67
2022/08/15 17:38:43;;;;;;;;;;;;;;;24.53;47.79;97875.19;2621514;54;20419;-67
2022/08/15 17:41:23;;;;;;;;;;;;;;;24.43;48.46;97870.03;2622739;39;20078;-66
2022/08/15 17:43:54;;;;;;;;;;;;;;;24.71;48.49;97874.22;2621247;47;19939;-67
2022/08/15 17:46:28;;;;;;;;;;;;;;;24.70;48.86;97877.25;2620502;54;19939;-67
2022/08/15 17:49:02;;;;;;;;;;;;;;;24.56;49.09;97882.69;2620617;51;19950;-67
2022/08/15 17:51:37;;;;;;;;;;;;;;;24.61;49.16;97887.97;2620975;54;19953;-67
2022/08/15 17:54:11;;;;;;;;;;;;;;;24.63;48.72;97887.69;2621907;39;20314;-67